Time;durP1;ratioP1;P1;durP2;ratioP2;P2;SDS_P1;SDS_P2;PMS_P1;PMS_P2;Temp;Humidity;BMP_temperature;BMP_pressure;BME280_temperature;BME280_humidity;BME280_pressure;Samples;Min_cycle;Max_cycle;Signal;HPM_P1;HPM_P2
2021/01/12 00:01:51;;;;;;;1.30;0.50;;;-8.70;99.90;;;;;;20824985;28;20092;-62
2021/01/12 00:11:54;;;;;;;1.17;0.40;;;-8.60;99.90;;;;;;20824923;28;20335;-62
2021/01/12 00:21:56;;;;;;;1.40;0.50;;;-8.40;99.90;;;;;;20823917;28;20095;-63
2021/01/12 00:31:58;;;;;;;0.60;0.20;;;-8.30;99.90;;;;;;20804454;28;20102;-63
2021/01/12 00:42:00;;;;;;;0.40;0.20;;;-8.40;99.90;;;;;;20804469;28;20397;-62
2021/01/12 00:52:09;;;;;;;1.27;0.30;;;-8.20;99.90;;;;;;20822283;28;20541;-63
2021/01/12 01:02:11;;;;;;;0.83;0.20;;;-8.10;99.90;;;;;;20757753;28;20050;-63
2021/01/12 01:12:13;;;;;;;0.77;0.30;;;-8.10;99.90;;;;;;20738385;28;20108;-62
2021/01/12 01:22:15;;;;;;;0.50;0.23;;;-8.10;99.90;;;;;;20721175;28;20034;-63
2021/01/12 01:32:17;;;;;;;0.40;0.20;;;-8.00;99.90;;;;;;20721373;28;20394;-63
2021/01/12 01:42:19;;;;;;;0.60;0.30;;;-7.90;99.90;;;;;;20738433;28;20034;-62
2021/01/12 01:52:25;;;;;;;0.43;0.13;;;-7.90;99.90;;;;;;20719930;28;20042;-65
2021/01/12 02:02:27;;;;;;;0.30;0.10;;;-8.00;99.90;;;;;;20736782;28;20488;-62
2021/01/12 02:12:37;;;;;;;0.40;0.20;;;-7.90;99.90;;;;;;20719228;28;20088;-62
2021/01/12 02:22:45;;;;;;;0.67;0.20;;;-7.90;99.90;;;;;;20730809;28;20108;-63
2021/01/12 02:32:47;;;;;;;1.00;0.20;;;-8.00;99.90;;;;;;20732694;28;20551;-64
2021/01/12 02:42:49;;;;;;;0.50;0.10;;;-8.20;99.90;;;;;;20749365;28;20065;-65
2021/01/12 02:52:51;;;;;;;0.60;0.10;;;-8.30;99.90;;;;;;20748642;28;20058;-62
2021/01/12 03:02:53;;;;;;;0.43;0.10;;;-8.30;99.90;;;;;;20748447;28;20062;-62
2021/01/12 03:12:55;;;;;;;0.60;0.20;;;-8.30;99.90;;;;;;20747717;28;20041;-63
2021/01/12 03:22:57;;;;;;;2.83;0.40;;;-8.40;99.90;;;;;;20729529;28;20176;-62
2021/01/12 03:32:59;;;;;;;0.50;0.30;;;-8.30;99.90;;;;;;20746194;28;20053;-63
2021/01/12 03:43:01;;;;;;;0.50;0.23;;;-7.80;99.90;;;;;;20745185;28;20076;-63
2021/01/12 03:53:03;;;;;;;0.20;0.13;;;-7.90;99.90;;;;;;20790182;28;20124;-62
2021/01/12 04:03:05;;;;;;;1.33;0.20;;;-8.00;99.90;;;;;;20743558;28;20062;-64
2021/01/12 04:13:06;;;;;;;0.30;0.13;;;-7.90;99.90;;;;;;20742284;28;20554;-63
2021/01/12 04:23:08;;;;;;;0.77;0.20;;;-7.80;99.90;;;;;;20725157;28;20033;-63
2021/01/12 04:33:10;;;;;;;0.77;0.20;;;-7.70;99.90;;;;;;20723705;28;20092;-63
2021/01/12 04:43:12;;;;;;;0.30;0.10;;;-7.40;99.90;;;;;;20739883;28;20038;-63
2021/01/12 04:53:14;;;;;;;1.00;0.20;;;-7.20;99.90;;;;;;20740484;28;20484;-62
2021/01/12 05:03:16;;;;;;;0.37;0.10;;;-7.20;98.30;;;;;;20721910;28;20062;-63
2021/01/12 05:13:21;;;;;;;0.47;0.10;;;-7.10;98.30;;;;;;20739153;28;20533;-63
2021/01/12 05:23:30;;;;;;;0.40;0.10;;;-7.30;98.60;;;;;;20739140;28;20064;-63
2021/01/12 05:33:33;;;;;;;0.67;0.20;;;-7.20;98.80;;;;;;20737506;28;20046;-63
2021/01/12 05:43:40;;;;;;;0.20;0.10;;;-6.70;97.50;;;;;;20737868;28;20033;-63
2021/01/12 05:53:50;;;;;;;0.27;0.10;;;-6.50;96.80;;;;;;20746162;28;20450;-64
2021/01/12 06:03:53;;;;;;;0.10;0.10;;;-6.50;97.90;;;;;;20753544;28;20054;-63
2021/01/12 06:14:07;;;;;;;0.17;0.00;;;-6.50;97.50;;;;;;20752278;28;20042;-63
2021/01/12 06:24:18;;;;;;;0.20;0.10;;;-6.20;97.00;;;;;;20751755;28;20175;-64
2021/01/12 06:34:21;;;;;;;0.00;0.00;;;-5.30;95.00;;;;;;20751062;28;20435;-63
2021/01/12 06:44:27;;;;;;;0.55;0.00;;;-5.00;93.90;;;;;;20732087;28;20034;-63
2021/01/12 06:54:32;;;;;;;1.05;0.00;;;-5.00;94.90;;;;;;20811279;28;20103;-62
2021/01/12 07:04:34;;;;;;;0.30;0.00;;;-4.80;94.90;;;;;;20810870;28;20045;-63
2021/01/12 07:14:46;;;;;;;0.10;0.00;;;-4.20;94.30;;;;;;20829250;28;20041;-63
2021/01/12 07:24:48;;;;;;;0.38;0.10;;;-4.00;94.20;;;;;;20827916;28;20053;-63
2021/01/12 07:34:54;;;;;;;0.20;0.00;;;-3.90;92.70;;;;;;20811236;28;20456;-63
2021/01/12 07:44:55;;;;;;;0.20;0.08;;;-3.70;84.50;;;;;;20826133;28;20057;-63
2021/01/12 07:54:59;;;;;;;0.10;0.00;;;-3.20;91.40;;;;;;20742264;28;20045;-63
2021/01/12 08:05:09;;;;;;;0.40;0.10;;;-2.70;91.60;;;;;;20726196;28;20049;-64
2021/01/12 08:15:15;;;;;;;0.20;0.10;;;-2.00;83.70;;;;;;20708350;28;20087;-64
2021/01/12 08:25:18;;;;;;;0.05;0.00;;;-1.00;84.50;;;;;;20724388;28;20125;-64
2021/01/12 08:35:24;;;;;;;0.10;0.00;;;-0.30;84.60;;;;;;20740978;28;20054;-64
2021/01/12 08:45:27;;;;;;;0.00;0.00;;;0.70;83.70;;;;;;20740077;28;20061;-63
2021/01/12 08:55:29;;;;;;;0.32;0.00;;;1.20;81.30;;;;;;20739750;28;20053;-63
2021/01/12 09:05:38;;;;;;;0.30;0.10;;;1.60;83.20;;;;;;20721897;28;20076;-63
2021/01/12 09:15:43;;;;;;;1.52;0.10;;;1.90;71.10;;;;;;20738739;28;20575;-64
2021/01/12 09:25:52;;;;;;;0.30;0.10;;;1.80;71.60;;;;;;20743559;28;20104;-63
2021/01/12 09:36:05;;;;;;;0.80;0.10;;;3.10;58.40;;;;;;20765290;28;20716;-63
2021/01/12 09:46:08;;;;;;;0.15;0.10;;;4.10;53.70;;;;;;20764630;28;20060;-64
2021/01/12 09:56:12;;;;;;;1.85;0.20;;;3.60;56.00;;;;;;20747425;28;20042;-63
2021/01/12 10:06:19;;;;;;;0.47;0.20;;;2.70;59.50;;;;;;20746512;28;20093;-62
2021/01/12 10:16:22;;;;;;;0.65;0.10;;;2.00;64.70;;;;;;20764511;28;20108;-64
2021/01/12 10:26:27;;;;;;;0.70;0.10;;;2.90;62.50;;;;;;20762764;28;20057;-64
2021/01/12 10:36:29;;;;;;;0.50;0.10;;;5.00;56.60;;;;;;20760211;28;20034;-64
2021/01/12 10:46:32;;;;;;;0.68;0.30;;;4.90;56.20;;;;;;20748861;28;20408;-64
2021/01/12 10:56:37;;;;;;;0.55;0.15;;;4.20;56.40;;;;;;20748281;28;20101;-64
2021/01/12 11:06:40;;;;;;;0.77;0.30;;;4.40;56.30;;;;;;20747625;28;20567;-64
2021/01/12 11:16:42;;;;;;;4.32;0.90;;;5.90;53.80;;;;;;20746845;28;20034;-65
2021/01/12 11:26:45;;;;;;;1.98;0.70;;;7.10;51.50;;;;;;20746872;28;20095;-64
2021/01/12 11:36:48;;;;;;;1.67;0.40;;;6.90;55.80;;;;;;20728100;28;20049;-64
2021/01/12 11:46:51;;;;;;;3.03;1.15;;;7.10;53.10;;;;;;20744845;28;20030;-65
2021/01/12 11:56:56;;;;;;;2.08;0.80;;;8.10;49.50;;;;;;20774539;28;20029;-64
2021/01/12 12:07:02;;;;;;;3.35;1.25;;;9.10;46.60;;;;;;20963748;23;20053;-64
2021/01/12 12:17:04;;;;;;;2.40;1.42;;;8.70;50.40;;;;;;20907085;28;20144;-64
2021/01/12 12:27:08;;;;;;;2.15;0.60;;;7.30;48.30;;;;;;20906235;28;20045;-64
2021/01/12 12:37:10;;;;;;;2.60;1.30;;;6.00;53.80;;;;;;20906005;28;20091;-63
2021/01/12 12:47:15;;;;;;;3.28;1.38;;;4.90;56.60;;;;;;20886935;28;20075;-63
2021/01/12 12:57:17;;;;;;;2.00;1.30;;;4.60;62.00;;;;;;20884643;28;20037;-64
2021/01/12 13:07:19;;;;;;;2.08;1.33;;;4.30;61.20;;;;;;20902598;28;20049;-63
2021/01/12 13:17:24;;;;;;;3.22;1.50;;;4.40;61.60;;;;;;20903347;28;20037;-63
2021/01/12 13:27:28;;;;;;;3.15;1.33;;;4.10;63.80;;;;;;20885160;28;20110;-63
2021/01/12 13:37:30;;;;;;;2.83;1.20;;;3.40;61.90;;;;;;20902243;28;20041;-63
2021/01/12 13:47:32;;;;;;;4.72;1.38;;;2.80;69.60;;;;;;20901765;28;20045;-65
2021/01/12 13:57:36;;;;;;;1.90;1.05;;;2.20;62.20;;;;;;20901482;28;20111;-63
2021/01/12 14:07:38;;;;;;;3.33;1.30;;;1.60;69.40;;;;;;20883268;28;20457;-62
2021/01/12 14:17:54;;;;;;;1.95;0.77;;;1.60;68.50;;;;;;20910940;28;20041;-63
2021/01/12 14:27:56;;;;;;;1.95;0.55;;;1.50;75.10;;;;;;20915323;28;20041;-62
2021/01/12 14:38:03;;;;;;;1.35;0.70;;;1.40;77.20;;;;;;20896303;28;20465;-63
2021/01/12 14:48:06;;;;;;;2.13;0.70;;;1.10;74.20;;;;;;20915578;28;20067;-63
2021/01/12 14:58:08;;;;;;;1.95;0.80;;;0.60;79.90;;;;;;20896236;28;20095;-63
2021/01/12 15:08:10;;;;;;;2.83;0.90;;;0.20;80.90;;;;;;20895019;28;20045;-63
2021/01/12 15:18:15;;;;;;;2.92;1.17;;;-0.40;83.90;;;;;;20893650;28;20083;-63
2021/01/12 15:28:17;;;;;;;2.42;1.10;;;-0.80;80.10;;;;;;20910251;28;20045;-62
2021/01/12 15:38:20;;;;;;;1.20;0.70;;;-1.40;81.20;;;;;;20910340;28;20044;-63
2021/01/12 15:48:23;;;;;;;3.55;0.77;;;-2.00;80.50;;;;;;20891724;28;20037;-62
2021/01/12 15:58:25;;;;;;;1.83;0.50;;;-2.50;81.70;;;;;;20909640;28;20041;-62
2021/01/12 16:08:27;;;;;;;1.27;0.35;;;-2.80;81.50;;;;;;20889972;28;20053;-63
2021/01/12 16:18:30;;;;;;;0.40;0.10;;;-3.10;82.60;;;;;;20889836;28;20029;-62
2021/01/12 16:28:34;;;;;;;3.40;0.38;;;-3.10;87.60;;;;;;20906092;28;20102;-63
2021/01/12 16:38:40;;;;;;;1.65;0.20;;;-2.80;79.10;;;;;;20906321;28;20183;-63
2021/01/12 16:49:06;;;;;;;0.70;0.30;;;-3.00;80.80;;;;;;20904889;28;20033;-63
2021/01/12 16:59:13;;;;;;;0.93;0.32;;;-3.40;83.40;;;;;;20870414;28;20041;-63
2021/01/12 17:09:29;;;;;;;1.83;0.40;;;-3.70;83.00;;;;;;20885039;28;20037;-63
2021/01/12 17:19:35;;;;;;;1.42;0.60;;;-3.80;81.50;;;;;;20886173;28;20045;-63
2021/01/12 17:29:38;;;;;;;1.30;0.50;;;-3.80;84.40;;;;;;20869493;28;20034;-63
2021/01/12 17:39:50;;;;;;;1.20;0.40;;;-3.40;81.40;;;;;;20884536;28;20045;-63
2021/01/12 17:50:08;;;;;;;1.13;0.60;;;-2.20;79.90;;;;;;20894281;28;20041;-63
2021/01/12 18:00:11;;;;;;;1.67;0.68;;;-1.80;76.70;;;;;;20900646;28;20479;-63
2021/01/12 18:10:37;;;;;;;0.77;0.32;;;-2.40;75.80;;;;;;20763618;28;20050;-62
2021/01/12 18:20:42;;;;;;;0.57;0.20;;;-2.60;86.30;;;;;;20750842;28;20092;-63
2021/01/12 18:30:44;;;;;;;0.38;0.10;;;-2.40;88.90;;;;;;20749884;28;20046;-63
2021/01/12 18:40:47;;;;;;;0.22;0.10;;;-2.40;89.90;;;;;;20749988;28;20472;-62
2021/01/12 18:51:09;;;;;;;0.22;0.10;;;-2.70;90.70;;;;;;20749740;28;20555;-63
2021/01/12 19:01:11;;;;;;;0.20;0.10;;;-2.80;92.10;;;;;;20748706;28;20038;-65
2021/01/12 19:11:22;;;;;;;0.60;0.10;;;-2.90;90.80;;;;;;20899772;28;20049;-62
2021/01/12 19:21:25;;;;;;;0.28;0.05;;;-2.60;90.70;;;;;;20911799;28;20033;-62
2021/01/12 19:31:32;;;;;;;2.35;0.20;;;-2.70;91.50;;;;;;20910640;28;20045;-62
2021/01/12 19:41:39;;;;;;;0.15;0.03;;;-2.50;91.80;;;;;;20892785;28;20536;-65
2021/01/12 19:51:41;;;;;;;0.28;0.00;;;-2.50;94.00;;;;;;20909352;28;20099;-63
2021/01/12 20:01:44;;;;;;;0.03;0.00;;;-2.40;92.80;;;;;;20908720;28;20041;-64
2021/01/12 20:11:47;;;;;;;2.05;0.10;;;-1.60;89.20;;;;;;20908013;28;20049;-64
2021/01/12 20:21:53;;;;;;;0.93;0.17;;;-0.80;85.60;;;;;;20907150;28;20041;-63
2021/01/12 20:31:57;;;;;;;0.10;0.00;;;-0.90;78.10;;;;;;20888834;28;20033;-63
2021/01/12 20:42:03;;;;;;;0.35;0.10;;;-1.10;85.00;;;;;;20905819;28;20110;-63
2021/01/12 20:52:12;;;;;;;0.20;0.05;;;-1.00;86.10;;;;;;20904982;28;20029;-63
2021/01/12 21:02:15;;;;;;;1.00;0.10;;;-1.90;89.40;;;;;;20868814;28;20102;-62
2021/01/12 21:12:17;;;;;;;1.67;0.10;;;-2.60;92.20;;;;;;20886689;28;20083;-63
2021/01/12 21:22:20;;;;;;;0.52;0.10;;;-2.60;91.70;;;;;;20885079;28;20037;-62
2021/01/12 21:32:22;;;;;;;0.70;0.20;;;-1.80;85.00;;;;;;20885393;28;20037;-63
2021/01/12 21:42:26;;;;;;;0.30;0.10;;;-1.80;86.00;;;;;;20883932;28;20045;-62
2021/01/12 21:52:32;;;;;;;0.08;0.00;;;-2.10;90.20;;;;;;20882564;28;20086;-63
2021/01/12 22:02:38;;;;;;;0.30;0.10;;;-2.60;93.60;;;;;;20888687;28;20557;-62
2021/01/12 22:12:51;;;;;;;0.10;0.00;;;-2.80;94.60;;;;;;20903967;28;20029;-62
2021/01/12 22:22:55;;;;;;;0.10;0.10;;;-3.10;97.00;;;;;;20881167;28;20562;-62
2021/01/12 22:32:58;;;;;;;0.20;0.05;;;-3.10;95.70;;;;;;20887839;28;20495;-63
2021/01/12 22:43:00;;;;;;;0.20;0.10;;;-2.60;94.40;;;;;;20901206;28;20067;-63
2021/01/12 22:53:03;;;;;;;0.10;0.10;;;-2.50;94.40;;;;;;20920439;28;20628;-62
2021/01/12 23:03:07;;;;;;;0.05;0.00;;;-2.60;94.70;;;;;;20899228;28;20110;-65
2021/01/12 23:13:10;;;;;;;0.22;0.00;;;-2.60;95.40;;;;;;20915796;28;20045;-62
2021/01/12 23:23:13;;;;;;;0.00;0.00;;;-2.70;95.50;;;;;;20916458;28;20045;-62
2021/01/12 23:33:15;;;;;;;0.00;0.00;;;-2.00;94.00;;;;;;20916046;28;20033;-63
2021/01/12 23:43:18;;;;;;;0.10;0.00;;;-2.40;93.80;;;;;;20914026;28;20045;-62
2021/01/12 23:53:20;;;;;;;0.10;0.00;;;-2.50;95.50;;;;;;20913753;28;20037;-62
